sensor_id;sensor_type;location;lat;lon;timestamp;P1;P2;P0
36453;PMS5003;22478;51.740;-1.314;2023-02-18T00:01:35;27;26;
36453;PMS5003;22478;51.740;-1.314;2023-02-18T00:04:02;21;21;
36453;PMS5003;22478;51.740;-1.314;2023-02-18T00:06:30;22;22;
36453;PMS5003;22478;51.740;-1.314;2023-02-18T00:08:58;23;23;
36453;PMS5003;22478;51.740;-1.314;2023-02-18T00:11:27;27;27;
36453;PMS5003;22478;51.740;-1.314;2023-02-18T00:13:56;24;24;
36453;PMS5003;22478;51.740;-1.314;2023-02-18T00:16:25;22;19;
36453;PMS5003;22478;51.740;-1.314;2023-02-18T00:18:54;21;21;
36453;PMS5003;22478;51.740;-1.314;2023-02-18T00:21:21;28;28;
36453;PMS5003;22478;51.740;-1.314;2023-02-18T00:23:49;14;14;
36453;PMS5003;22478;51.740;-1.314;2023-02-18T00:26:17;26;26;
36453;PMS5003;22478;51.740;-1.314;2023-02-18T00:28:45;24;24;
36453;PMS5003;22478;51.740;-1.314;2023-02-18T00:31:14;19;19;
36453;PMS5003;22478;51.740;-1.314;2023-02-18T00:33:43;25;25;
36453;PMS5003;22478;51.740;-1.314;2023-02-18T00:36:11;24;24;
36453;PMS5003;22478;51.740;-1.314;2023-02-18T00:38:43;19;18;
36453;PMS5003;22478;51.740;-1.314;2023-02-18T00:41:11;21;21;
36453;PMS5003;22478;51.740;-1.314;2023-02-18T00:43:38;18;16;
36453;PMS5003;22478;51.740;-1.314;2023-02-18T00:46:05;26;26;
36453;PMS5003;22478;51.740;-1.314;2023-02-18T00:48:32;23;21;
36453;PMS5003;22478;51.740;-1.314;2023-02-18T00:51:01;16;15;
36453;PMS5003;22478;51.740;-1.314;2023-02-18T00:53:30;17;17;
36453;PMS5003;22478;51.740;-1.314;2023-02-18T00:55:57;34;32;
36453;PMS5003;22478;51.740;-1.314;2023-02-18T00:58:25;18;17;
36453;PMS5003;22478;51.740;-1.314;2023-02-18T01:00:52;13;13;
36453;PMS5003;22478;51.740;-1.314;2023-02-18T01:03:20;11;9;
36453;PMS5003;22478;51.740;-1.314;2023-02-18T01:05:47;17;17;
36453;PMS5003;22478;51.740;-1.314;2023-02-18T01:08:15;11;11;
36453;PMS5003;22478;51.740;-1.314;2023-02-18T01:10:44;7;7;
36453;PMS5003;22478;51.740;-1.314;2023-02-18T01:13:13;23;23;
36453;PMS5003;22478;51.740;-1.314;2023-02-18T01:15:42;15;15;
36453;PMS5003;22478;51.740;-1.314;2023-02-18T01:18:09;14;12;
36453;PMS5003;22478;51.740;-1.314;2023-02-18T01:20:37;10;10;
36453;PMS5003;22478;51.740;-1.314;2023-02-18T01:23:06;18;15;
36453;PMS5003;22478;51.740;-1.314;2023-02-18T01:25:35;9;8;
36453;PMS5003;22478;51.740;-1.314;2023-02-18T01:28:04;15;15;
36453;PMS5003;22478;51.740;-1.314;2023-02-18T01:30:32;21;19;
36453;PMS5003;22478;51.740;-1.314;2023-02-18T01:33:00;11;11;
36453;PMS5003;22478;51.740;-1.314;2023-02-18T01:35:27;22;22;
36453;PMS5003;22478;51.740;-1.314;2023-02-18T01:37:55;17;17;
36453;PMS5003;22478;51.740;-1.314;2023-02-18T01:40:25;21;21;
36453;PMS5003;22478;51.740;-1.314;2023-02-18T01:42:55;13;13;
36453;PMS5003;22478;51.740;-1.314;2023-02-18T01:45:34;17;17;
36453;PMS5003;22478;51.740;-1.314;2023-02-18T01:48:14;19;17;
36453;PMS5003;22478;51.740;-1.314;2023-02-18T01:50:46;16;16;
36453;PMS5003;22478;51.740;-1.314;2023-02-18T01:53:17;19;16;
36453;PMS5003;22478;51.740;-1.314;2023-02-18T01:55:50;13;13;
36453;PMS5003;22478;51.740;-1.314;2023-02-18T01:58:17;14;14;
36453;PMS5003;22478;51.740;-1.314;2023-02-18T02:00:46;16;16;
36453;PMS5003;22478;51.740;-1.314;2023-02-18T02:03:13;7;7;
36453;PMS5003;22478;51.740;-1.314;2023-02-18T02:05:40;10;9;
36453;PMS5003;22478;51.740;-1.314;2023-02-18T02:08:07;11;10;
36453;PMS5003;22478;51.740;-1.314;2023-02-18T02:10:38;14;14;
36453;PMS5003;22478;51.740;-1.314;2023-02-18T02:13:15;12;12;
36453;PMS5003;22478;51.740;-1.314;2023-02-18T02:15:52;14;9;
36453;PMS5003;22478;51.740;-1.314;2023-02-18T02:18:29;10;10;
36453;PMS5003;22478;51.740;-1.314;2023-02-18T02:21:13;12;12;
36453;PMS5003;22478;51.740;-1.314;2023-02-18T02:23:54;12;12;
36453;PMS5003;22478;51.740;-1.314;2023-02-18T02:26:52;9;8;
36453;PMS5003;22478;51.740;-1.314;2023-02-18T02:29:35;10;10;
36453;PMS5003;22478;51.740;-1.314;2023-02-18T02:32:00;10;10;
36453;PMS5003;22478;51.740;-1.314;2023-02-18T02:34:43;13;13;
36453;PMS5003;22478;51.740;-1.314;2023-02-18T02:37:17;19;16;
36453;PMS5003;22478;51.740;-1.314;2023-02-18T02:39:55;14;14;
36453;PMS5003;22478;51.740;-1.314;2023-02-18T02:42:31;12;10;
36453;PMS5003;22478;51.740;-1.314;2023-02-18T02:45:09;11;11;
36453;PMS5003;22478;51.740;-1.314;2023-02-18T02:47:44;10;8;
36453;PMS5003;22478;51.740;-1.314;2023-02-18T02:50:19;10;9;
36453;PMS5003;22478;51.740;-1.314;2023-02-18T02:52:57;9;9;
36453;PMS5003;22478;51.740;-1.314;2023-02-18T02:55:30;13;13;
36453;PMS5003;22478;51.740;-1.314;2023-02-18T02:57:57;8;8;
36453;PMS5003;22478;51.740;-1.314;2023-02-18T03:00:28;14;12;
36453;PMS5003;22478;51.740;-1.314;2023-02-18T03:03:10;10;10;
36453;PMS5003;22478;51.740;-1.314;2023-02-18T03:05:50;10;10;
36453;PMS5003;22478;51.740;-1.314;2023-02-18T03:08:38;13;13;
36453;PMS5003;22478;51.740;-1.314;2023-02-18T03:11:13;15;15;
36453;PMS5003;22478;51.740;-1.314;2023-02-18T03:13:48;15;15;
36453;PMS5003;22478;51.740;-1.314;2023-02-18T03:16:25;11;9;
36453;PMS5003;22478;51.740;-1.314;2023-02-18T03:18:59;13;10;
36453;PMS5003;22478;51.740;-1.314;2023-02-18T03:21:32;13;13;
36453;PMS5003;22478;51.740;-1.314;2023-02-18T03:24:05;9;9;
36453;PMS5003;22478;51.740;-1.314;2023-02-18T03:26:36;11;9;
36453;PMS5003;22478;51.740;-1.314;2023-02-18T03:29:10;10;9;
36453;PMS5003;22478;51.740;-1.314;2023-02-18T03:31:40;14;12;
36453;PMS5003;22478;51.740;-1.314;2023-02-18T03:34:12;10;8;
36453;PMS5003;22478;51.740;-1.314;2023-02-18T03:36:44;10;10;
36453;PMS5003;22478;51.740;-1.314;2023-02-18T03:39:13;9;9;
36453;PMS5003;22478;51.740;-1.314;2023-02-18T03:41:42;18;17;
36453;PMS5003;22478;51.740;-1.314;2023-02-18T03:44:10;11;11;
36453;PMS5003;22478;51.740;-1.314;2023-02-18T03:46:39;10;10;
36453;PMS5003;22478;51.740;-1.314;2023-02-18T03:49:08;17;17;
36453;PMS5003;22478;51.740;-1.314;2023-02-18T03:51:36;13;11;
36453;PMS5003;22478;51.740;-1.314;2023-02-18T03:54:04;13;13;
36453;PMS5003;22478;51.740;-1.314;2023-02-18T03:56:31;9;9;
36453;PMS5003;22478;51.740;-1.314;2023-02-18T03:58:59;19;18;
36453;PMS5003;22478;51.740;-1.314;2023-02-18T04:01:27;13;13;
36453;PMS5003;22478;51.740;-1.314;2023-02-18T04:03:54;10;10;
36453;PMS5003;22478;51.740;-1.314;2023-02-18T04:06:22;11;11;
36453;PMS5003;22478;51.740;-1.314;2023-02-18T04:08:50;13;13;
36453;PMS5003;22478;51.740;-1.314;2023-02-18T04:11:17;11;11;
36453;PMS5003;22478;51.740;-1.314;2023-02-18T04:13:44;11;11;
36453;PMS5003;22478;51.740;-1.314;2023-02-18T04:16:11;12;12;
36453;PMS5003;22478;51.740;-1.314;2023-02-18T04:18:39;14;13;
36453;PMS5003;22478;51.740;-1.314;2023-02-18T04:21:08;23;23;
36453;PMS5003;22478;51.740;-1.314;2023-02-18T04:23:35;9;9;
36453;PMS5003;22478;51.740;-1.314;2023-02-18T04:26:02;11;10;
36453;PMS5003;22478;51.740;-1.314;2023-02-18T04:28:30;12;12;
36453;PMS5003;22478;51.740;-1.314;2023-02-18T04:30:57;9;8;
36453;PMS5003;22478;51.740;-1.314;2023-02-18T04:33:25;16;14;
36453;PMS5003;22478;51.740;-1.314;2023-02-18T04:35:52;7;7;
36453;PMS5003;22478;51.740;-1.314;2023-02-18T04:38:19;17;17;
36453;PMS5003;22478;51.740;-1.314;2023-02-18T04:40:46;8;7;
36453;PMS5003;22478;51.740;-1.314;2023-02-18T04:43:14;14;14;
36453;PMS5003;22478;51.740;-1.314;2023-02-18T04:45:41;19;18;
36453;PMS5003;22478;51.740;-1.314;2023-02-18T04:48:08;12;12;
36453;PMS5003;22478;51.740;-1.314;2023-02-18T04:50:35;24;24;
36453;PMS5003;22478;51.740;-1.314;2023-02-18T04:53:02;18;16;
36453;PMS5003;22478;51.740;-1.314;2023-02-18T04:55:30;28;26;
36453;PMS5003;22478;51.740;-1.314;2023-02-18T04:57:57;21;21;
36453;PMS5003;22478;51.740;-1.314;2023-02-18T05:00:24;20;20;
36453;PMS5003;22478;51.740;-1.314;2023-02-18T05:02:51;19;19;
36453;PMS5003;22478;51.740;-1.314;2023-02-18T05:05:18;22;22;
36453;PMS5003;22478;51.740;-1.314;2023-02-18T05:07:45;23;22;
36453;PMS5003;22478;51.740;-1.314;2023-02-18T05:10:14;23;21;
36453;PMS5003;22478;51.740;-1.314;2023-02-18T05:12:42;23;23;
36453;PMS5003;22478;51.740;-1.314;2023-02-18T05:15:10;13;12;
36453;PMS5003;22478;51.740;-1.314;2023-02-18T05:17:38;22;22;
36453;PMS5003;22478;51.740;-1.314;2023-02-18T05:20:05;20;20;
36453;PMS5003;22478;51.740;-1.314;2023-02-18T05:22:33;31;31;
36453;PMS5003;22478;51.740;-1.314;2023-02-18T05:25:01;27;27;
36453;PMS5003;22478;51.740;-1.314;2023-02-18T05:27:28;29;28;
36453;PMS5003;22478;51.740;-1.314;2023-02-18T05:29:56;27;26;
36453;PMS5003;22478;51.740;-1.314;2023-02-18T05:32:24;19;17;
36453;PMS5003;22478;51.740;-1.314;2023-02-18T05:34:51;14;14;
36453;PMS5003;22478;51.740;-1.314;2023-02-18T05:37:18;25;24;
36453;PMS5003;22478;51.740;-1.314;2023-02-18T05:39:46;16;16;
36453;PMS5003;22478;51.740;-1.314;2023-02-18T05:42:13;29;28;
36453;PMS5003;22478;51.740;-1.314;2023-02-18T05:44:40;20;20;
36453;PMS5003;22478;51.740;-1.314;2023-02-18T05:47:08;16;16;
36453;PMS5003;22478;51.740;-1.314;2023-02-18T05:49:37;19;19;
36453;PMS5003;22478;51.740;-1.314;2023-02-18T05:52:05;15;15;
36453;PMS5003;22478;51.740;-1.314;2023-02-18T05:54:33;23;23;
36453;PMS5003;22478;51.740;-1.314;2023-02-18T05:57:02;21;21;
36453;PMS5003;22478;51.740;-1.314;2023-02-18T05:59:29;17;17;
36453;PMS5003;22478;51.740;-1.314;2023-02-18T06:01:57;24;23;
36453;PMS5003;22478;51.740;-1.314;2023-02-18T06:04:24;18;16;
36453;PMS5003;22478;51.740;-1.314;2023-02-18T06:06:52;15;14;
36453;PMS5003;22478;51.740;-1.314;2023-02-18T06:09:19;15;14;
36453;PMS5003;22478;51.740;-1.314;2023-02-18T06:11:47;18;18;
36453;PMS5003;22478;51.740;-1.314;2023-02-18T06:14:14;18;18;
36453;PMS5003;22478;51.740;-1.314;2023-02-18T06:16:41;17;16;
36453;PMS5003;22478;51.740;-1.314;2023-02-18T06:19:09;20;15;
36453;PMS5003;22478;51.740;-1.314;2023-02-18T06:21:37;24;24;
36453;PMS5003;22478;51.740;-1.314;2023-02-18T06:24:04;19;19;
36453;PMS5003;22478;51.740;-1.314;2023-02-18T06:26:32;19;16;
36453;PMS5003;22478;51.740;-1.314;2023-02-18T06:28:59;15;15;
36453;PMS5003;22478;51.740;-1.314;2023-02-18T06:31:27;26;26;
36453;PMS5003;22478;51.740;-1.314;2023-02-18T06:33:54;15;14;
36453;PMS5003;22478;51.740;-1.314;2023-02-18T06:36:21;25;23;
36453;PMS5003;22478;51.740;-1.314;2023-02-18T06:38:48;17;16;
36453;PMS5003;22478;51.740;-1.314;2023-02-18T06:41:16;13;12;
36453;PMS5003;22478;51.740;-1.314;2023-02-18T06:43:43;19;19;
36453;PMS5003;22478;51.740;-1.314;2023-02-18T06:46:10;24;24;
36453;PMS5003;22478;51.740;-1.314;2023-02-18T06:48:38;13;13;
36453;PMS5003;22478;51.740;-1.314;2023-02-18T06:51:05;20;19;
36453;PMS5003;22478;51.740;-1.314;2023-02-18T06:53:32;16;16;
36453;PMS5003;22478;51.740;-1.314;2023-02-18T06:56:00;20;20;
36453;PMS5003;22478;51.740;-1.314;2023-02-18T06:58:29;17;17;
36453;PMS5003;22478;51.740;-1.314;2023-02-18T07:00:56;21;21;
36453;PMS5003;22478;51.740;-1.314;2023-02-18T07:03:24;15;13;
36453;PMS5003;22478;51.740;-1.314;2023-02-18T07:05:51;28;28;
36453;PMS5003;22478;51.740;-1.314;2023-02-18T07:08:19;21;21;
36453;PMS5003;22478;51.740;-1.314;2023-02-18T07:10:46;25;25;
36453;PMS5003;22478;51.740;-1.314;2023-02-18T07:13:14;17;17;
36453;PMS5003;22478;51.740;-1.314;2023-02-18T07:15:42;22;22;
36453;PMS5003;22478;51.740;-1.314;2023-02-18T07:18:09;14;14;
36453;PMS5003;22478;51.740;-1.314;2023-02-18T07:20:36;11;9;
36453;PMS5003;22478;51.740;-1.314;2023-02-18T07:23:03;14;12;
36453;PMS5003;22478;51.740;-1.314;2023-02-18T07:25:31;21;20;
36453;PMS5003;22478;51.740;-1.314;2023-02-18T07:27:59;21;21;
36453;PMS5003;22478;51.740;-1.314;2023-02-18T07:30:26;18;18;
36453;PMS5003;22478;51.740;-1.314;2023-02-18T07:32:53;13;13;
36453;PMS5003;22478;51.740;-1.314;2023-02-18T07:35:20;20;20;
36453;PMS5003;22478;51.740;-1.314;2023-02-18T07:37:47;20;17;
36453;PMS5003;22478;51.740;-1.314;2023-02-18T07:40:17;22;22;
36453;PMS5003;22478;51.740;-1.314;2023-02-18T07:42:46;21;21;
36453;PMS5003;22478;51.740;-1.314;2023-02-18T07:45:14;19;19;
36453;PMS5003;22478;51.740;-1.314;2023-02-18T07:47:41;21;21;
36453;PMS5003;22478;51.740;-1.314;2023-02-18T07:50:09;15;14;
36453;PMS5003;22478;51.740;-1.314;2023-02-18T07:52:37;17;17;
36453;PMS5003;22478;51.740;-1.314;2023-02-18T07:55:04;39;37;
36453;PMS5003;22478;51.740;-1.314;2023-02-18T07:57:32;40;37;
36453;PMS5003;22478;51.740;-1.314;2023-02-18T07:59:59;24;24;
36453;PMS5003;22478;51.740;-1.314;2023-02-18T08:02:26;20;20;
36453;PMS5003;22478;51.740;-1.314;2023-02-18T08:04:53;26;26;
36453;PMS5003;22478;51.740;-1.314;2023-02-18T08:07:21;29;29;
36453;PMS5003;22478;51.740;-1.314;2023-02-18T08:09:48;18;18;
36453;PMS5003;22478;51.740;-1.314;2023-02-18T08:12:16;25;24;
36453;PMS5003;22478;51.740;-1.314;2023-02-18T08:14:43;19;19;
36453;PMS5003;22478;51.740;-1.314;2023-02-18T08:17:11;20;18;
36453;PMS5003;22478;51.740;-1.314;2023-02-18T08:19:38;17;17;
36453;PMS5003;22478;51.740;-1.314;2023-02-18T08:22:05;25;25;
36453;PMS5003;22478;51.740;-1.314;2023-02-18T08:24:32;21;21;
36453;PMS5003;22478;51.740;-1.314;2023-02-18T08:27:00;18;15;
36453;PMS5003;22478;51.740;-1.314;2023-02-18T08:29:27;17;17;
36453;PMS5003;22478;51.740;-1.314;2023-02-18T08:31:59;21;21;
36453;PMS5003;22478;51.740;-1.314;2023-02-18T08:34:27;36;36;
36453;PMS5003;22478;51.740;-1.314;2023-02-18T08:36:54;16;16;
36453;PMS5003;22478;51.740;-1.314;2023-02-18T08:39:22;13;13;
36453;PMS5003;22478;51.740;-1.314;2023-02-18T08:41:49;16;15;
36453;PMS5003;22478;51.740;-1.314;2023-02-18T08:44:16;23;21;
36453;PMS5003;22478;51.740;-1.314;2023-02-18T08:46:48;20;20;
36453;PMS5003;22478;51.740;-1.314;2023-02-18T08:49:15;19;19;
36453;PMS5003;22478;51.740;-1.314;2023-02-18T08:51:42;16;16;
36453;PMS5003;22478;51.740;-1.314;2023-02-18T08:54:11;15;13;
36453;PMS5003;22478;51.740;-1.314;2023-02-18T08:56:38;22;22;
36453;PMS5003;22478;51.740;-1.314;2023-02-18T08:59:06;12;12;
36453;PMS5003;22478;51.740;-1.314;2023-02-18T09:01:33;36;35;
36453;PMS5003;22478;51.740;-1.314;2023-02-18T09:04:00;14;14;
36453;PMS5003;22478;51.740;-1.314;2023-02-18T09:06:28;16;16;
36453;PMS5003;22478;51.740;-1.314;2023-02-18T09:08:55;21;21;
36453;PMS5003;22478;51.740;-1.314;2023-02-18T09:11:22;16;16;
36453;PMS5003;22478;51.740;-1.314;2023-02-18T09:13:49;38;36;
36453;PMS5003;22478;51.740;-1.314;2023-02-18T09:16:17;17;17;
36453;PMS5003;22478;51.740;-1.314;2023-02-18T09:18:45;15;13;
36453;PMS5003;22478;51.740;-1.314;2023-02-18T09:21:14;17;17;
36453;PMS5003;22478;51.740;-1.314;2023-02-18T09:23:42;19;17;
36453;PMS5003;22478;51.740;-1.314;2023-02-18T09:26:10;19;19;
36453;PMS5003;22478;51.740;-1.314;2023-02-18T09:28:41;17;14;
36453;PMS5003;22478;51.740;-1.314;2023-02-18T09:31:09;10;10;
36453;PMS5003;22478;51.740;-1.314;2023-02-18T09:33:39;18;18;
36453;PMS5003;22478;51.740;-1.314;2023-02-18T09:36:09;12;12;
36453;PMS5003;22478;51.740;-1.314;2023-02-18T09:38:38;21;17;
36453;PMS5003;22478;51.740;-1.314;2023-02-18T09:41:07;18;16;
36453;PMS5003;22478;51.740;-1.314;2023-02-18T09:43:42;19;19;
36453;PMS5003;22478;51.740;-1.314;2023-02-18T09:46:16;20;20;
36453;PMS5003;22478;51.740;-1.314;2023-02-18T09:48:53;15;15;
36453;PMS5003;22478;51.740;-1.314;2023-02-18T09:51:27;24;21;
36453;PMS5003;22478;51.740;-1.314;2023-02-18T09:53:55;20;20;
36453;PMS5003;22478;51.740;-1.314;2023-02-18T09:56:28;22;22;
36453;PMS5003;22478;51.740;-1.314;2023-02-18T09:58:59;14;14;
36453;PMS5003;22478;51.740;-1.314;2023-02-18T10:01:37;14;14;
36453;PMS5003;22478;51.740;-1.314;2023-02-18T10:04:14;11;11;
36453;PMS5003;22478;51.740;-1.314;2023-02-18T10:06:47;16;15;
36453;PMS5003;22478;51.740;-1.314;2023-02-18T10:09:18;14;14;
36453;PMS5003;22478;51.740;-1.314;2023-02-18T10:11:55;21;21;
36453;PMS5003;22478;51.740;-1.314;2023-02-18T10:14:32;16;12;
36453;PMS5003;22478;51.740;-1.314;2023-02-18T10:17:00;19;19;
36453;PMS5003;22478;51.740;-1.314;2023-02-18T10:19:30;17;16;
36453;PMS5003;22478;51.740;-1.314;2023-02-18T10:22:03;17;15;
36453;PMS5003;22478;51.740;-1.314;2023-02-18T10:24:35;16;16;
36453;PMS5003;22478;51.740;-1.314;2023-02-18T10:27:08;12;11;
36453;PMS5003;22478;51.740;-1.314;2023-02-18T10:29:43;13;13;
36453;PMS5003;22478;51.740;-1.314;2023-02-18T10:32:18;14;14;
36453;PMS5003;22478;51.740;-1.314;2023-02-18T10:34:56;12;12;
36453;PMS5003;22478;51.740;-1.314;2023-02-18T10:37:35;12;10;
36453;PMS5003;22478;51.740;-1.314;2023-02-18T10:40:17;17;16;
36453;PMS5003;22478;51.740;-1.314;2023-02-18T10:42:55;8;8;
36453;PMS5003;22478;51.740;-1.314;2023-02-18T10:45:33;13;12;
36453;PMS5003;22478;51.740;-1.314;2023-02-18T10:48:13;19;18;
36453;PMS5003;22478;51.740;-1.314;2023-02-18T10:50:51;24;23;
36453;PMS5003;22478;51.740;-1.314;2023-02-18T10:53:24;23;23;
36453;PMS5003;22478;51.740;-1.314;2023-02-18T10:55:59;17;17;
36453;PMS5003;22478;51.740;-1.314;2023-02-18T10:58:29;14;13;
36453;PMS5003;22478;51.740;-1.314;2023-02-18T11:00:59;17;17;
36453;PMS5003;22478;51.740;-1.314;2023-02-18T11:03:37;21;18;
36453;PMS5003;22478;51.740;-1.314;2023-02-18T11:06:14;13;11;
36453;PMS5003;22478;51.740;-1.314;2023-02-18T11:08:44;11;11;
36453;PMS5003;22478;51.740;-1.314;2023-02-18T11:11:20;13;11;
36453;PMS5003;22478;51.740;-1.314;2023-02-18T11:13:52;11;11;
36453;PMS5003;22478;51.740;-1.314;2023-02-18T11:16:21;11;11;
36453;PMS5003;22478;51.740;-1.314;2023-02-18T11:18:49;14;13;
36453;PMS5003;22478;51.740;-1.314;2023-02-18T11:21:23;11;11;
36453;PMS5003;22478;51.740;-1.314;2023-02-18T11:23:55;12;11;
36453;PMS5003;22478;51.740;-1.314;2023-02-18T11:26:25;8;8;
36453;PMS5003;22478;51.740;-1.314;2023-02-18T11:28:57;16;16;
36453;PMS5003;22478;51.740;-1.314;2023-02-18T11:31:29;10;9;
36453;PMS5003;22478;51.740;-1.314;2023-02-18T11:34:04;11;10;
36453;PMS5003;22478;51.740;-1.314;2023-02-18T11:36:32;11;11;
36453;PMS5003;22478;51.740;-1.314;2023-02-18T11:39:02;13;13;
36453;PMS5003;22478;51.740;-1.314;2023-02-18T11:41:33;13;13;
36453;PMS5003;22478;51.740;-1.314;2023-02-18T11:44:05;13;13;
36453;PMS5003;22478;51.740;-1.314;2023-02-18T11:46:46;11;11;
36453;PMS5003;22478;51.740;-1.314;2023-02-18T11:49:28;15;15;
36453;PMS5003;22478;51.740;-1.314;2023-02-18T11:52:02;15;15;
36453;PMS5003;22478;51.740;-1.314;2023-02-18T11:54:31;20;20;
36453;PMS5003;22478;51.740;-1.314;2023-02-18T11:56:59;17;17;
36453;PMS5003;22478;51.740;-1.314;2023-02-18T11:59:29;19;19;
36453;PMS5003;22478;51.740;-1.314;2023-02-18T12:02:01;22;20;
36453;PMS5003;22478;51.740;-1.314;2023-02-18T12:04:39;16;15;
36453;PMS5003;22478;51.740;-1.314;2023-02-18T12:07:14;14;14;
36453;PMS5003;22478;51.740;-1.314;2023-02-18T12:09:47;22;20;
36453;PMS5003;22478;51.740;-1.314;2023-02-18T12:12:17;31;28;
36453;PMS5003;22478;51.740;-1.314;2023-02-18T12:14:50;15;14;
36453;PMS5003;22478;51.740;-1.314;2023-02-18T12:17:24;11;11;
36453;PMS5003;22478;51.740;-1.314;2023-02-18T12:20:02;12;12;
36453;PMS5003;22478;51.740;-1.314;2023-02-18T12:22:42;15;15;
36453;PMS5003;22478;51.740;-1.314;2023-02-18T12:25:19;20;20;
36453;PMS5003;22478;51.740;-1.314;2023-02-18T12:27:55;27;26;
36453;PMS5003;22478;51.740;-1.314;2023-02-18T12:30:40;14;14;
36453;PMS5003;22478;51.740;-1.314;2023-02-18T12:33:27;15;14;
36453;PMS5003;22478;51.740;-1.314;2023-02-18T12:36:08;15;15;
36453;PMS5003;22478;51.740;-1.314;2023-02-18T12:38:52;16;14;
36453;PMS5003;22478;51.740;-1.314;2023-02-18T12:41:37;19;17;
36453;PMS5003;22478;51.740;-1.314;2023-02-18T12:44:19;22;22;
36453;PMS5003;22478;51.740;-1.314;2023-02-18T12:47:03;17;16;
36453;PMS5003;22478;51.740;-1.314;2023-02-18T12:49:49;17;16;
36453;PMS5003;22478;51.740;-1.314;2023-02-18T12:53:37;7;7;
36453;PMS5003;22478;51.740;-1.314;2023-02-18T12:56:32;4;4;
36453;PMS5003;22478;51.740;-1.314;2023-02-18T12:59:16;7;6;
36453;PMS5003;22478;51.740;-1.314;2023-02-18T13:01:57;5;5;
36453;PMS5003;22478;51.740;-1.314;2023-02-18T13:04:39;6;5;
36453;PMS5003;22478;51.740;-1.314;2023-02-18T13:07:27;6;6;
36453;PMS5003;22478;51.740;-1.314;2023-02-18T13:10:10;7;7;
36453;PMS5003;22478;51.740;-1.314;2023-02-18T13:12:52;6;6;
36453;PMS5003;22478;51.740;-1.314;2023-02-18T13:15:29;8;7;
36453;PMS5003;22478;51.740;-1.314;2023-02-18T13:18:05;8;5;
36453;PMS5003;22478;51.740;-1.314;2023-02-18T13:20:38;6;6;
36453;PMS5003;22478;51.740;-1.314;2023-02-18T13:23:09;5;5;
36453;PMS5003;22478;51.740;-1.314;2023-02-18T13:25:43;6;5;
36453;PMS5003;22478;51.740;-1.314;2023-02-18T13:28:13;4;4;
36453;PMS5003;22478;51.740;-1.314;2023-02-18T13:30:47;6;6;
36453;PMS5003;22478;51.740;-1.314;2023-02-18T13:33:21;5;5;
36453;PMS5003;22478;51.740;-1.314;2023-02-18T13:35:56;4;4;
36453;PMS5003;22478;51.740;-1.314;2023-02-18T13:38:47;4;4;
36453;PMS5003;22478;51.740;-1.314;2023-02-18T13:41:19;5;5;
36453;PMS5003;22478;51.740;-1.314;2023-02-18T13:43:47;6;6;
36453;PMS5003;22478;51.740;-1.314;2023-02-18T13:46:16;9;9;
36453;PMS5003;22478;51.740;-1.314;2023-02-18T13:48:46;4;4;
36453;PMS5003;22478;51.740;-1.314;2023-02-18T13:51:15;4;4;
36453;PMS5003;22478;51.740;-1.314;2023-02-18T13:53:52;9;7;
36453;PMS5003;22478;51.740;-1.314;2023-02-18T13:56:32;4;4;
36453;PMS5003;22478;51.740;-1.314;2023-02-18T13:59:05;2;2;
36453;PMS5003;22478;51.740;-1.314;2023-02-18T14:01:38;5;5;
36453;PMS5003;22478;51.740;-1.314;2023-02-18T14:06:22;4;4;
36453;PMS5003;22478;51.740;-1.314;2023-02-18T14:09:01;4;4;
36453;PMS5003;22478;51.740;-1.314;2023-02-18T14:12:16;5;3;
36453;PMS5003;22478;51.740;-1.314;2023-02-18T14:14:51;5;4;
36453;PMS5003;22478;51.740;-1.314;2023-02-18T14:17:28;2;2;
36453;PMS5003;22478;51.740;-1.314;2023-02-18T14:20:31;3;3;
36453;PMS5003;22478;51.740;-1.314;2023-02-18T14:24:41;6;5;
36453;PMS5003;22478;51.740;-1.314;2023-02-18T14:27:14;7;7;
36453;PMS5003;22478;51.740;-1.314;2023-02-18T14:29:43;9;8;
36453;PMS5003;22478;51.740;-1.314;2023-02-18T14:32:11;9;9;
36453;PMS5003;22478;51.740;-1.314;2023-02-18T14:35:13;6;6;
36453;PMS5003;22478;51.740;-1.314;2023-02-18T14:37:56;8;8;
36453;PMS5003;22478;51.740;-1.314;2023-02-18T14:40:45;9;8;
36453;PMS5003;22478;51.740;-1.314;2023-02-18T14:43:27;11;11;
36453;PMS5003;22478;51.740;-1.314;2023-02-18T14:46:08;2;2;
36453;PMS5003;22478;51.740;-1.314;2023-02-18T14:48:48;4;4;
36453;PMS5003;22478;51.740;-1.314;2023-02-18T14:51:24;4;4;
36453;PMS5003;22478;51.740;-1.314;2023-02-18T14:53:55;3;3;
36453;PMS5003;22478;51.740;-1.314;2023-02-18T14:56:27;3;2;
36453;PMS5003;22478;51.740;-1.314;2023-02-18T14:58:56;4;4;
36453;PMS5003;22478;51.740;-1.314;2023-02-18T15:01:28;4;4;
36453;PMS5003;22478;51.740;-1.314;2023-02-18T15:03:56;8;8;
36453;PMS5003;22478;51.740;-1.314;2023-02-18T15:06:24;6;6;
36453;PMS5003;22478;51.740;-1.314;2023-02-18T15:08:55;6;6;
36453;PMS5003;22478;51.740;-1.314;2023-02-18T15:11:23;4;4;
36453;PMS5003;22478;51.740;-1.314;2023-02-18T15:13:57;6;4;
36453;PMS5003;22478;51.740;-1.314;2023-02-18T15:16:25;5;5;
36453;PMS5003;22478;51.740;-1.314;2023-02-18T15:18:57;3;3;
36453;PMS5003;22478;51.740;-1.314;2023-02-18T15:21:28;6;6;
36453;PMS5003;22478;51.740;-1.314;2023-02-18T15:23:58;9;7;
36453;PMS5003;22478;51.740;-1.314;2023-02-18T15:26:31;9;9;
36453;PMS5003;22478;51.740;-1.314;2023-02-18T15:28:59;5;4;
36453;PMS5003;22478;51.740;-1.314;2023-02-18T15:31:29;6;6;
36453;PMS5003;22478;51.740;-1.314;2023-02-18T15:34:01;4;4;
36453;PMS5003;22478;51.740;-1.314;2023-02-18T15:36:29;4;4;
36453;PMS5003;22478;51.740;-1.314;2023-02-18T15:38:57;5;4;
36453;PMS5003;22478;51.740;-1.314;2023-02-18T15:41:25;4;4;
36453;PMS5003;22478;51.740;-1.314;2023-02-18T15:43:53;8;8;
36453;PMS5003;22478;51.740;-1.314;2023-02-18T15:46:23;5;4;
36453;PMS5003;22478;51.740;-1.314;2023-02-18T15:48:51;6;4;
36453;PMS5003;22478;51.740;-1.314;2023-02-18T15:51:21;6;5;
36453;PMS5003;22478;51.740;-1.314;2023-02-18T15:53:52;7;7;
36453;PMS5003;22478;51.740;-1.314;2023-02-18T15:56:25;7;7;
36453;PMS5003;22478;51.740;-1.314;2023-02-18T15:59:15;13;13;
36453;PMS5003;22478;51.740;-1.314;2023-02-18T16:01:46;9;9;
36453;PMS5003;22478;51.740;-1.314;2023-02-18T16:04:15;7;6;
36453;PMS5003;22478;51.740;-1.314;2023-02-18T16:06:44;4;4;
36453;PMS5003;22478;51.740;-1.314;2023-02-18T16:09:15;10;9;
36453;PMS5003;22478;51.740;-1.314;2023-02-18T16:11:46;2;2;
36453;PMS5003;22478;51.740;-1.314;2023-02-18T16:14:22;6;6;
36453;PMS5003;22478;51.740;-1.314;2023-02-18T16:17:04;7;7;
36453;PMS5003;22478;51.740;-1.314;2023-02-18T16:19:36;9;7;
36453;PMS5003;22478;51.740;-1.314;2023-02-18T16:22:32;10;9;
36453;PMS5003;22478;51.740;-1.314;2023-02-18T16:25:06;16;14;
36453;PMS5003;22478;51.740;-1.314;2023-02-18T16:27:45;14;12;
36453;PMS5003;22478;51.740;-1.314;2023-02-18T16:30:15;25;25;
36453;PMS5003;22478;51.740;-1.314;2023-02-18T16:32:45;15;13;
36453;PMS5003;22478;51.740;-1.314;2023-02-18T16:35:13;13;12;
36453;PMS5003;22478;51.740;-1.314;2023-02-18T16:37:45;12;12;
36453;PMS5003;22478;51.740;-1.314;2023-02-18T16:40:28;21;20;
36453;PMS5003;22478;51.740;-1.314;2023-02-18T16:42:58;14;14;